Terminal Aerodrome Forecast
Issued by NWS Billings, MT

Home | Current Version | Previous Version | Graphics & Text | Print | Product List | Glossary On
Versions: 1 2 3 4 5 6 7 8 9 10 11 12 13 14 15 16 17
000
FTUS45 KBYZ 211133
TAFMLS
TAF
KMLS 211133Z 2112/2212 19005KT P6SM VCSH BKN100
      TEMPO 2115/2118 23015G25KT 5SM -RA SCT015 BKN035 OVC070
     FM211800 23020G30KT P6SM BKN100
     FM220100 27012KT P6SM BKN100=

USA.gov is the U.S. government's official web portal to all federal, state and local government web resources and services.